LIPX/VRN METAR and TAF weather

Enter ICAO airport designator
Station Type Date Time Source
LIPX METAR 2019/04/23 00:20 UTC NOAA

LIPX 230020Z 04013KT 9999 RA SCT020 BKN050 14/11 Q1006


Station Type Date Time Source
LIPX Decoded METAR 2019/04/23 00:20 UTC NOAA

Verona / Villafranca, Italy (LIPX) 45-23N 010-52E 68M
Apr 22, 2019 - 08:20 PM EDT / 2019.04.23 0020 UTC
Wind: from the NE (040 degrees) at 15 MPH (13 KT):0
Visibility: greater than 7 mile(s):0
Sky conditions: mostly cloudy
Weather: rain
Temperature: 57 F (14 C)
Dew Point: 51 F (11 C)
Relative Humidity: 82%
Pressure (altimeter): 29.71 in. Hg (1006 hPa)
ob: LIPX 230020Z 04013KT 9999 RA SCT020 BKN050 14/11 Q1006
cycle: 0

Station Type Date Time Source
LIPX TAF 2014/04/22 15:24 UTC NOAA

TAF LIPX 221400Z 2215/2324 VRB05KT 9999 SCT030 SCT070
TEMPO 2215/2218 SCT025CB SCT080 PROB30
TEMPO 2215/2218 TS

Example: see airport list